sensor_id;sensor_type;location;lat;lon;timestamp;P1;durP1;ratioP1;P2;durP2;ratioP2
17650;SDS011;26663;59.302;18.082;2022-09-13T00:01:23;4.88;;;1.92;;
17650;SDS011;26663;59.302;18.082;2022-09-13T00:04:29;1.73;;;1.60;;
17650;SDS011;26663;59.302;18.082;2022-09-13T00:07:36;4.43;;;2.25;;
17650;SDS011;26663;59.302;18.082;2022-09-13T00:10:42;2.13;;;2.00;;
17650;SDS011;26663;59.302;18.082;2022-09-13T00:13:48;1.95;;;1.85;;
17650;SDS011;26663;59.302;18.082;2022-09-13T00:16:54;1.70;;;1.70;;
17650;SDS011;26663;59.302;18.082;2022-09-13T00:19:59;3.30;;;2.05;;
17650;SDS011;26663;59.302;18.082;2022-09-13T00:23:08;3.90;;;2.15;;
17650;SDS011;26663;59.302;18.082;2022-09-13T00:26:15;1.90;;;1.90;;
17650;SDS011;26663;59.302;18.082;2022-09-13T00:29:23;1.98;;;1.88;;
17650;SDS011;26663;59.302;18.082;2022-09-13T00:32:29;2.08;;;2.00;;
17650;SDS011;26663;59.302;18.082;2022-09-13T00:35:35;1.88;;;1.75;;
17650;SDS011;26663;59.302;18.082;2022-09-13T00:38:42;1.98;;;1.98;;
17650;SDS011;26663;59.302;18.082;2022-09-13T00:41:47;2.20;;;2.10;;
17650;SDS011;26663;59.302;18.082;2022-09-13T00:44:54;2.00;;;2.00;;
17650;SDS011;26663;59.302;18.082;2022-09-13T00:48:02;1.83;;;1.83;;
17650;SDS011;26663;59.302;18.082;2022-09-13T00:51:09;1.90;;;1.90;;
17650;SDS011;26663;59.302;18.082;2022-09-13T00:54:17;3.13;;;1.92;;
17650;SDS011;26663;59.302;18.082;2022-09-13T00:57:26;1.98;;;1.85;;
17650;SDS011;26663;59.302;18.082;2022-09-13T01:00:33;2.72;;;2.10;;
17650;SDS011;26663;59.302;18.082;2022-09-13T01:03:39;2.65;;;1.80;;
17650;SDS011;26663;59.302;18.082;2022-09-13T01:06:47;3.90;;;2.33;;
17650;SDS011;26663;59.302;18.082;2022-09-13T01:09:55;3.50;;;1.80;;
17650;SDS011;26663;59.302;18.082;2022-09-13T01:13:07;1.80;;;1.77;;
17650;SDS011;26663;59.302;18.082;2022-09-13T01:16:17;2.10;;;2.10;;
17650;SDS011;26663;59.302;18.082;2022-09-13T01:19:22;1.92;;;1.92;;
17650;SDS011;26663;59.302;18.082;2022-09-13T01:22:36;1.98;;;1.85;;
17650;SDS011;26663;59.302;18.082;2022-09-13T01:30:29;5.75;;;2.38;;
17650;SDS011;26663;59.302;18.082;2022-09-13T01:33:41;1.85;;;1.75;;
17650;SDS011;26663;59.302;18.082;2022-09-13T01:37:10;1.52;;;1.52;;
17650;SDS011;26663;59.302;18.082;2022-09-13T01:40:46;2.00;;;1.90;;
17650;SDS011;26663;59.302;18.082;2022-09-13T01:44:02;2.22;;;2.13;;
17650;SDS011;26663;59.302;18.082;2022-09-13T01:47:18;1.88;;;1.80;;
17650;SDS011;26663;59.302;18.082;2022-09-13T01:50:32;2.10;;;2.00;;
17650;SDS011;26663;59.302;18.082;2022-09-13T01:53:49;2.13;;;2.03;;
17650;SDS011;26663;59.302;18.082;2022-09-13T01:57:03;1.80;;;1.80;;
17650;SDS011;26663;59.302;18.082;2022-09-13T02:00:14;2.05;;;1.80;;
17650;SDS011;26663;59.302;18.082;2022-09-13T02:03:22;1.95;;;1.95;;
17650;SDS011;26663;59.302;18.082;2022-09-13T02:06:32;2.17;;;2.17;;
17650;SDS011;26663;59.302;18.082;2022-09-13T02:09:40;2.03;;;2.00;;
17650;SDS011;26663;59.302;18.082;2022-09-13T02:12:48;1.80;;;1.80;;
17650;SDS011;26663;59.302;18.082;2022-09-13T02:15:56;2.00;;;1.90;;
17650;SDS011;26663;59.302;18.082;2022-09-13T02:19:07;2.03;;;1.88;;
17650;SDS011;26663;59.302;18.082;2022-09-13T02:22:19;2.08;;;1.98;;
17650;SDS011;26663;59.302;18.082;2022-09-13T02:25:32;1.88;;;1.80;;
17650;SDS011;26663;59.302;18.082;2022-09-13T02:28:40;3.22;;;1.77;;
17650;SDS011;26663;59.302;18.082;2022-09-13T02:31:50;5.50;;;1.92;;
17650;SDS011;26663;59.302;18.082;2022-09-13T02:35:03;2.08;;;1.98;;
17650;SDS011;26663;59.302;18.082;2022-09-13T02:38:14;2.00;;;1.90;;
17650;SDS011;26663;59.302;18.082;2022-09-13T02:41:24;2.10;;;2.00;;
17650;SDS011;26663;59.302;18.082;2022-09-13T02:44:39;2.25;;;1.90;;
17650;SDS011;26663;59.302;18.082;2022-09-13T02:47:49;1.98;;;1.67;;
17650;SDS011;26663;59.302;18.082;2022-09-13T02:51:02;1.90;;;1.90;;
17650;SDS011;26663;59.302;18.082;2022-09-13T02:54:14;2.20;;;2.00;;
17650;SDS011;26663;59.302;18.082;2022-09-13T02:57:29;2.28;;;1.98;;
17650;SDS011;26663;59.302;18.082;2022-09-13T03:00:37;1.88;;;1.88;;
17650;SDS011;26663;59.302;18.082;2022-09-13T03:03:43;2.38;;;2.17;;
17650;SDS011;26663;59.302;18.082;2022-09-13T03:06:50;2.00;;;2.00;;
17650;SDS011;26663;59.302;18.082;2022-09-13T03:09:56;2.17;;;2.08;;
17650;SDS011;26663;59.302;18.082;2022-09-13T03:17:03;1.95;;;1.85;;
17650;SDS011;26663;59.302;18.082;2022-09-13T03:20:20;2.20;;;2.08;;
17650;SDS011;26663;59.302;18.082;2022-09-13T03:23:43;1.92;;;1.80;;
17650;SDS011;26663;59.302;18.082;2022-09-13T03:26:57;1.70;;;1.70;;
17650;SDS011;26663;59.302;18.082;2022-09-13T03:30:13;1.90;;;1.90;;
17650;SDS011;26663;59.302;18.082;2022-09-13T03:33:22;1.85;;;1.75;;
17650;SDS011;26663;59.302;18.082;2022-09-13T03:36:35;2.25;;;2.08;;
17650;SDS011;26663;59.302;18.082;2022-09-13T03:39:47;2.22;;;2.10;;
17650;SDS011;26663;59.302;18.082;2022-09-13T03:42:57;1.98;;;1.90;;
17650;SDS011;26663;59.302;18.082;2022-09-13T03:46:07;2.97;;;2.00;;
17650;SDS011;26663;59.302;18.082;2022-09-13T03:49:16;3.33;;;2.10;;
17650;SDS011;26663;59.302;18.082;2022-09-13T03:52:23;1.70;;;1.70;;
17650;SDS011;26663;59.302;18.082;2022-09-13T03:55:30;2.50;;;2.30;;
17650;SDS011;26663;59.302;18.082;2022-09-13T03:58:36;4.20;;;2.10;;
17650;SDS011;26663;59.302;18.082;2022-09-13T04:01:42;2.25;;;2.13;;
17650;SDS011;26663;59.302;18.082;2022-09-13T04:04:48;2.40;;;2.28;;
17650;SDS011;26663;59.302;18.082;2022-09-13T04:07:53;2.50;;;2.35;;
17650;SDS011;26663;59.302;18.082;2022-09-13T04:11:00;2.50;;;2.22;;
17650;SDS011;26663;59.302;18.082;2022-09-13T04:14:05;3.17;;;2.42;;
17650;SDS011;26663;59.302;18.082;2022-09-13T04:17:12;6.00;;;2.20;;
17650;SDS011;26663;59.302;18.082;2022-09-13T04:20:17;2.17;;;2.08;;
17650;SDS011;26663;59.302;18.082;2022-09-13T04:23:23;2.47;;;2.38;;
17650;SDS011;26663;59.302;18.082;2022-09-13T04:26:32;2.42;;;2.25;;
17650;SDS011;26663;59.302;18.082;2022-09-13T04:29:38;2.30;;;2.20;;
17650;SDS011;26663;59.302;18.082;2022-09-13T04:32:43;2.28;;;2.17;;
17650;SDS011;26663;59.302;18.082;2022-09-13T04:35:52;5.75;;;2.40;;
17650;SDS011;26663;59.302;18.082;2022-09-13T04:39:01;3.83;;;2.60;;
17650;SDS011;26663;59.302;18.082;2022-09-13T04:42:09;2.60;;;2.40;;
17650;SDS011;26663;59.302;18.082;2022-09-13T04:45:14;2.30;;;2.20;;
17650;SDS011;26663;59.302;18.082;2022-09-13T04:48:20;2.95;;;2.20;;
17650;SDS011;26663;59.302;18.082;2022-09-13T04:51:25;2.40;;;2.30;;
17650;SDS011;26663;59.302;18.082;2022-09-13T04:54:31;2.45;;;2.30;;
17650;SDS011;26663;59.302;18.082;2022-09-13T04:57:37;1.95;;;1.95;;
17650;SDS011;26663;59.302;18.082;2022-09-13T05:00:43;3.22;;;2.28;;
17650;SDS011;26663;59.302;18.082;2022-09-13T05:03:49;2.50;;;2.40;;
17650;SDS011;26663;59.302;18.082;2022-09-13T05:06:55;2.90;;;2.10;;
17650;SDS011;26663;59.302;18.082;2022-09-13T05:10:01;2.55;;;2.33;;
17650;SDS011;26663;59.302;18.082;2022-09-13T05:13:10;1.67;;;1.67;;
17650;SDS011;26663;59.302;18.082;2022-09-13T05:16:15;3.80;;;2.33;;
17650;SDS011;26663;59.302;18.082;2022-09-13T05:19:21;2.72;;;1.98;;
17650;SDS011;26663;59.302;18.082;2022-09-13T05:22:27;2.40;;;2.30;;
17650;SDS011;26663;59.302;18.082;2022-09-13T05:25:32;2.85;;;2.60;;
17650;SDS011;26663;59.302;18.082;2022-09-13T05:28:39;2.45;;;2.35;;
17650;SDS011;26663;59.302;18.082;2022-09-13T05:31:45;1.83;;;1.83;;
17650;SDS011;26663;59.302;18.082;2022-09-13T05:34:51;2.10;;;1.98;;
17650;SDS011;26663;59.302;18.082;2022-09-13T05:37:56;3.08;;;2.30;;
17650;SDS011;26663;59.302;18.082;2022-09-13T05:41:02;6.07;;;2.20;;
17650;SDS011;26663;59.302;18.082;2022-09-13T05:44:12;11.82;;;2.28;;
17650;SDS011;26663;59.302;18.082;2022-09-13T05:47:17;2.00;;;1.90;;
17650;SDS011;26663;59.302;18.082;2022-09-13T05:50:23;1.98;;;1.98;;
17650;SDS011;26663;59.302;18.082;2022-09-13T05:53:49;2.50;;;2.30;;
17650;SDS011;26663;59.302;18.082;2022-09-13T05:56:57;3.38;;;2.30;;
17650;SDS011;26663;59.302;18.082;2022-09-13T06:00:04;3.15;;;2.20;;
17650;SDS011;26663;59.302;18.082;2022-09-13T06:03:15;2.45;;;2.25;;
17650;SDS011;26663;59.302;18.082;2022-09-13T06:06:20;2.55;;;2.45;;
17650;SDS011;26663;59.302;18.082;2022-09-13T06:09:27;3.20;;;2.13;;
17650;SDS011;26663;59.302;18.082;2022-09-13T06:12:33;2.40;;;2.20;;
17650;SDS011;26663;59.302;18.082;2022-09-13T06:15:40;2.58;;;2.38;;
17650;SDS011;26663;59.302;18.082;2022-09-13T06:18:45;2.88;;;2.65;;
17650;SDS011;26663;59.302;18.082;2022-09-13T06:21:51;2.80;;;2.28;;
17650;SDS011;26663;59.302;18.082;2022-09-13T06:24:56;4.25;;;2.47;;
17650;SDS011;26663;59.302;18.082;2022-09-13T06:28:02;4.22;;;2.28;;
17650;SDS011;26663;59.302;18.082;2022-09-13T06:31:11;3.10;;;2.15;;
17650;SDS011;26663;59.302;18.082;2022-09-13T06:34:18;9.63;;;2.38;;
17650;SDS011;26663;59.302;18.082;2022-09-13T06:37:23;2.47;;;2.38;;
17650;SDS011;26663;59.302;18.082;2022-09-13T06:40:29;3.72;;;2.20;;
17650;SDS011;26663;59.302;18.082;2022-09-13T06:43:34;3.88;;;2.30;;
17650;SDS011;26663;59.302;18.082;2022-09-13T06:46:42;2.50;;;2.30;;
17650;SDS011;26663;59.302;18.082;2022-09-13T06:49:47;2.83;;;2.42;;
17650;SDS011;26663;59.302;18.082;2022-09-13T06:52:52;2.80;;;2.70;;
17650;SDS011;26663;59.302;18.082;2022-09-13T06:56:00;2.42;;;2.25;;
17650;SDS011;26663;59.302;18.082;2022-09-13T06:59:08;2.55;;;2.20;;
17650;SDS011;26663;59.302;18.082;2022-09-13T07:02:15;3.05;;;2.50;;
17650;SDS011;26663;59.302;18.082;2022-09-13T07:05:21;2.42;;;2.22;;
17650;SDS011;26663;59.302;18.082;2022-09-13T07:08:26;4.75;;;3.20;;
17650;SDS011;26663;59.302;18.082;2022-09-13T07:11:32;2.78;;;2.67;;
17650;SDS011;26663;59.302;18.082;2022-09-13T07:14:39;4.22;;;3.08;;
17650;SDS011;26663;59.302;18.082;2022-09-13T07:17:46;4.53;;;2.95;;
17650;SDS011;26663;59.302;18.082;2022-09-13T07:20:52;2.97;;;2.85;;
17650;SDS011;26663;59.302;18.082;2022-09-13T07:24:04;4.13;;;3.33;;
17650;SDS011;26663;59.302;18.082;2022-09-13T07:27:10;3.28;;;3.08;;
17650;SDS011;26663;59.302;18.082;2022-09-13T07:30:17;3.38;;;2.90;;
17650;SDS011;26663;59.302;18.082;2022-09-13T07:33:24;10.00;;;2.60;;
17650;SDS011;26663;59.302;18.082;2022-09-13T07:36:31;4.60;;;2.35;;
17650;SDS011;26663;59.302;18.082;2022-09-13T07:39:39;4.80;;;3.00;;
17650;SDS011;26663;59.302;18.082;2022-09-13T07:42:44;2.38;;;2.38;;
17650;SDS011;26663;59.302;18.082;2022-09-13T07:45:56;2.45;;;2.30;;
17650;SDS011;26663;59.302;18.082;2022-09-13T07:49:04;3.13;;;2.70;;
17650;SDS011;26663;59.302;18.082;2022-09-13T07:52:10;4.43;;;2.63;;
17650;SDS011;26663;59.302;18.082;2022-09-13T07:55:15;2.88;;;2.67;;
17650;SDS011;26663;59.302;18.082;2022-09-13T07:58:21;3.97;;;2.83;;
17650;SDS011;26663;59.302;18.082;2022-09-13T08:01:27;2.90;;;2.60;;
17650;SDS011;26663;59.302;18.082;2022-09-13T08:04:35;2.67;;;2.40;;
17650;SDS011;26663;59.302;18.082;2022-09-13T08:07:41;3.47;;;2.30;;
17650;SDS011;26663;59.302;18.082;2022-09-13T08:10:46;3.47;;;2.40;;
17650;SDS011;26663;59.302;18.082;2022-09-13T08:13:52;4.47;;;2.40;;
17650;SDS011;26663;59.302;18.082;2022-09-13T08:16:58;4.30;;;2.90;;
17650;SDS011;26663;59.302;18.082;2022-09-13T08:20:05;2.40;;;2.30;;
17650;SDS011;26663;59.302;18.082;2022-09-13T08:23:13;3.03;;;2.00;;
17650;SDS011;26663;59.302;18.082;2022-09-13T08:26:19;2.33;;;2.17;;
17650;SDS011;26663;59.302;18.082;2022-09-13T08:29:24;2.10;;;2.00;;
17650;SDS011;26663;59.302;18.082;2022-09-13T08:32:30;2.72;;;2.13;;
17650;SDS011;26663;59.302;18.082;2022-09-13T08:35:37;5.20;;;2.38;;
17650;SDS011;26663;59.302;18.082;2022-09-13T08:38:44;3.72;;;2.42;;
17650;SDS011;26663;59.302;18.082;2022-09-13T08:42:00;3.42;;;2.92;;
17650;SDS011;26663;59.302;18.082;2022-09-13T08:45:15;4.35;;;2.58;;
17650;SDS011;26663;59.302;18.082;2022-09-13T08:48:21;2.60;;;2.38;;
17650;SDS011;26663;59.302;18.082;2022-09-13T08:51:32;4.05;;;2.38;;
17650;SDS011;26663;59.302;18.082;2022-09-13T08:54:41;4.43;;;2.20;;
17650;SDS011;26663;59.302;18.082;2022-09-13T08:57:47;1.80;;;1.80;;
17650;SDS011;26663;59.302;18.082;2022-09-13T09:01:01;2.15;;;2.00;;
17650;SDS011;26663;59.302;18.082;2022-09-13T09:04:14;3.80;;;1.92;;
17650;SDS011;26663;59.302;18.082;2022-09-13T09:07:33;1.90;;;1.80;;
17650;SDS011;26663;59.302;18.082;2022-09-13T09:10:48;2.00;;;1.80;;
17650;SDS011;26663;59.302;18.082;2022-09-13T09:13:56;3.10;;;2.03;;
17650;SDS011;26663;59.302;18.082;2022-09-13T09:17:11;3.80;;;1.80;;
17650;SDS011;26663;59.302;18.082;2022-09-13T09:20:24;1.83;;;1.73;;
17650;SDS011;26663;59.302;18.082;2022-09-13T09:23:36;1.73;;;1.63;;
17650;SDS011;26663;59.302;18.082;2022-09-13T09:26:44;1.63;;;1.52;;
17650;SDS011;26663;59.302;18.082;2022-09-13T09:29:51;2.10;;;2.00;;
17650;SDS011;26663;59.302;18.082;2022-09-13T09:36:36;4.03;;;1.88;;
17650;SDS011;26663;59.302;18.082;2022-09-13T09:39:47;2.95;;;1.85;;
17650;SDS011;26663;59.302;18.082;2022-09-13T09:42:53;2.60;;;1.80;;
17650;SDS011;26663;59.302;18.082;2022-09-13T09:45:59;2.65;;;2.33;;
17650;SDS011;26663;59.302;18.082;2022-09-13T09:49:11;2.58;;;2.00;;
17650;SDS011;26663;59.302;18.082;2022-09-13T09:52:40;4.63;;;2.30;;
17650;SDS011;26663;59.302;18.082;2022-09-13T09:55:56;5.03;;;2.10;;
17650;SDS011;26663;59.302;18.082;2022-09-13T09:59:10;3.40;;;2.13;;
17650;SDS011;26663;59.302;18.082;2022-09-13T10:02:30;2.90;;;2.40;;
17650;SDS011;26663;59.302;18.082;2022-09-13T10:05:36;5.13;;;2.42;;
17650;SDS011;26663;59.302;18.082;2022-09-13T10:08:42;3.15;;;2.30;;
17650;SDS011;26663;59.302;18.082;2022-09-13T10:11:58;3.10;;;2.22;;
17650;SDS011;26663;59.302;18.082;2022-09-13T10:15:05;2.08;;;1.98;;
17650;SDS011;26663;59.302;18.082;2022-09-13T10:18:20;3.83;;;2.08;;
17650;SDS011;26663;59.302;18.082;2022-09-13T10:21:56;2.70;;;1.80;;
17650;SDS011;26663;59.302;18.082;2022-09-13T10:25:17;2.53;;;2.20;;
17650;SDS011;26663;59.302;18.082;2022-09-13T10:28:28;3.22;;;1.92;;
17650;SDS011;26663;59.302;18.082;2022-09-13T10:31:35;2.67;;;2.10;;
17650;SDS011;26663;59.302;18.082;2022-09-13T10:34:43;3.05;;;2.05;;
17650;SDS011;26663;59.302;18.082;2022-09-13T10:37:51;2.28;;;2.17;;
17650;SDS011;26663;59.302;18.082;2022-09-13T10:40:57;1.83;;;1.73;;
17650;SDS011;26663;59.302;18.082;2022-09-13T10:44:08;2.45;;;2.35;;
17650;SDS011;26663;59.302;18.082;2022-09-13T10:47:31;5.03;;;2.63;;
17650;SDS011;26663;59.302;18.082;2022-09-13T10:50:38;2.97;;;2.58;;
17650;SDS011;26663;59.302;18.082;2022-09-13T10:53:43;5.03;;;2.53;;
17650;SDS011;26663;59.302;18.082;2022-09-13T10:56:49;2.25;;;2.22;;
17650;SDS011;26663;59.302;18.082;2022-09-13T10:59:57;2.50;;;2.28;;
17650;SDS011;26663;59.302;18.082;2022-09-13T11:03:10;2.38;;;2.15;;
17650;SDS011;26663;59.302;18.082;2022-09-13T11:06:29;5.63;;;2.65;;
17650;SDS011;26663;59.302;18.082;2022-09-13T11:09:40;2.42;;;1.95;;
17650;SDS011;26663;59.302;18.082;2022-09-13T11:12:53;2.13;;;2.03;;
17650;SDS011;26663;59.302;18.082;2022-09-13T11:16:11;2.83;;;2.05;;
17650;SDS011;26663;59.302;18.082;2022-09-13T11:19:35;3.70;;;1.92;;
17650;SDS011;26663;59.302;18.082;2022-09-13T11:23:24;2.38;;;2.17;;
17650;SDS011;26663;59.302;18.082;2022-09-13T11:26:54;4.97;;;2.10;;
17650;SDS011;26663;59.302;18.082;2022-09-13T11:30:10;3.40;;;2.25;;
17650;SDS011;26663;59.302;18.082;2022-09-13T11:33:27;3.17;;;2.20;;
17650;SDS011;26663;59.302;18.082;2022-09-13T11:36:46;2.20;;;2.05;;
17650;SDS011;26663;59.302;18.082;2022-09-13T11:40:21;2.28;;;2.03;;
17650;SDS011;26663;59.302;18.082;2022-09-13T11:43:43;2.60;;;2.03;;
17650;SDS011;26663;59.302;18.082;2022-09-13T11:47:00;3.92;;;2.58;;
17650;SDS011;26663;59.302;18.082;2022-09-13T11:50:16;2.60;;;2.40;;
17650;SDS011;26663;59.302;18.082;2022-09-13T11:53:38;3.03;;;2.05;;
17650;SDS011;26663;59.302;18.082;2022-09-13T11:57:02;3.00;;;2.00;;
17650;SDS011;26663;59.302;18.082;2022-09-13T12:00:14;2.22;;;2.10;;
17650;SDS011;26663;59.302;18.082;2022-09-13T12:03:26;2.03;;;1.92;;
17650;SDS011;26663;59.302;18.082;2022-09-13T12:06:39;2.45;;;2.25;;
17650;SDS011;26663;59.302;18.082;2022-09-13T12:09:46;2.30;;;2.20;;
17650;SDS011;26663;59.302;18.082;2022-09-13T12:13:01;3.25;;;2.15;;
17650;SDS011;26663;59.302;18.082;2022-09-13T12:16:08;2.60;;;2.20;;
17650;SDS011;26663;59.302;18.082;2022-09-13T12:19:19;2.67;;;2.47;;
17650;SDS011;26663;59.302;18.082;2022-09-13T12:22:29;3.15;;;2.40;;
17650;SDS011;26663;59.302;18.082;2022-09-13T12:25:38;2.85;;;2.42;;
17650;SDS011;26663;59.302;18.082;2022-09-13T12:28:50;3.58;;;2.90;;
17650;SDS011;26663;59.302;18.082;2022-09-13T12:32:00;3.20;;;2.75;;
17650;SDS011;26663;59.302;18.082;2022-09-13T12:35:09;4.40;;;2.80;;
17650;SDS011;26663;59.302;18.082;2022-09-13T12:38:28;4.85;;;2.58;;
17650;SDS011;26663;59.302;18.082;2022-09-13T12:42:05;2.83;;;2.67;;
17650;SDS011;26663;59.302;18.082;2022-09-13T12:45:58;3.17;;;2.97;;
17650;SDS011;26663;59.302;18.082;2022-09-13T12:49:16;2.97;;;2.90;;
17650;SDS011;26663;59.302;18.082;2022-09-13T12:52:33;4.80;;;2.78;;
17650;SDS011;26663;59.302;18.082;2022-09-13T12:55:52;8.00;;;2.90;;
17650;SDS011;26663;59.302;18.082;2022-09-13T12:59:15;2.80;;;2.60;;
17650;SDS011;26663;59.302;18.082;2022-09-13T13:03:00;2.95;;;2.30;;
17650;SDS011;26663;59.302;18.082;2022-09-13T13:06:17;2.97;;;2.65;;
17650;SDS011;26663;59.302;18.082;2022-09-13T13:09:33;4.90;;;2.55;;
17650;SDS011;26663;59.302;18.082;2022-09-13T13:12:45;5.32;;;2.70;;
17650;SDS011;26663;59.302;18.082;2022-09-13T13:15:56;3.58;;;2.55;;
17650;SDS011;26663;59.302;18.082;2022-09-13T13:19:28;2.67;;;2.55;;
17650;SDS011;26663;59.302;18.082;2022-09-13T13:22:48;2.78;;;2.60;;
17650;SDS011;26663;59.302;18.082;2022-09-13T13:29:53;3.30;;;2.60;;
17650;SDS011;26663;59.302;18.082;2022-09-13T13:33:45;4.38;;;2.50;;
17650;SDS011;26663;59.302;18.082;2022-09-13T13:36:53;2.92;;;2.65;;
17650;SDS011;26663;59.302;18.082;2022-09-13T13:40:10;4.57;;;3.13;;
17650;SDS011;26663;59.302;18.082;2022-09-13T13:43:31;7.30;;;3.90;;
17650;SDS011;26663;59.302;18.082;2022-09-13T13:46:39;3.13;;;2.92;;
17650;SDS011;26663;59.302;18.082;2022-09-13T13:49:48;6.03;;;3.10;;
17650;SDS011;26663;59.302;18.082;2022-09-13T13:52:56;3.47;;;2.70;;
17650;SDS011;26663;59.302;18.082;2022-09-13T13:56:19;3.22;;;2.28;;
17650;SDS011;26663;59.302;18.082;2022-09-13T13:59:34;3.10;;;2.20;;
17650;SDS011;26663;59.302;18.082;2022-09-13T14:02:42;2.42;;;1.90;;
17650;SDS011;26663;59.302;18.082;2022-09-13T14:05:56;2.67;;;2.22;;
17650;SDS011;26663;59.302;18.082;2022-09-13T14:09:16;2.30;;;2.10;;
17650;SDS011;26663;59.302;18.082;2022-09-13T14:12:39;2.50;;;2.30;;
17650;SDS011;26663;59.302;18.082;2022-09-13T14:16:12;2.47;;;2.38;;
17650;SDS011;26663;59.302;18.082;2022-09-13T14:19:38;3.88;;;2.40;;
17650;SDS011;26663;59.302;18.082;2022-09-13T14:22:46;4.75;;;2.90;;
17650;SDS011;26663;59.302;18.082;2022-09-13T14:25:55;4.65;;;2.60;;
17650;SDS011;26663;59.302;18.082;2022-09-13T14:29:06;2.90;;;2.60;;
17650;SDS011;26663;59.302;18.082;2022-09-13T14:32:13;5.78;;;2.65;;
17650;SDS011;26663;59.302;18.082;2022-09-13T14:35:27;3.13;;;2.80;;
17650;SDS011;26663;59.302;18.082;2022-09-13T14:38:34;3.67;;;2.85;;
17650;SDS011;26663;59.302;18.082;2022-09-13T14:41:40;5.55;;;1.98;;
17650;SDS011;26663;59.302;18.082;2022-09-13T14:44:46;4.43;;;2.03;;
17650;SDS011;26663;59.302;18.082;2022-09-13T14:47:52;3.05;;;2.30;;
17650;SDS011;26663;59.302;18.082;2022-09-13T14:51:02;1.92;;;1.83;;
17650;SDS011;26663;59.302;18.082;2022-09-13T14:54:16;4.57;;;2.25;;
17650;SDS011;26663;59.302;18.082;2022-09-13T14:57:25;5.70;;;2.38;;
17650;SDS011;26663;59.302;18.082;2022-09-13T15:00:48;3.92;;;2.40;;
17650;SDS011;26663;59.302;18.082;2022-09-13T15:03:55;2.92;;;2.63;;
17650;SDS011;26663;59.302;18.082;2022-09-13T15:07:08;3.38;;;2.60;;
17650;SDS011;26663;59.302;18.082;2022-09-13T15:10:24;2.35;;;2.08;;
17650;SDS011;26663;59.302;18.082;2022-09-13T15:13:33;2.85;;;1.73;;
17650;SDS011;26663;59.302;18.082;2022-09-13T15:16:45;2.58;;;1.38;;
17650;SDS011;26663;59.302;18.082;2022-09-13T15:20:01;2.22;;;2.05;;
17650;SDS011;26663;59.302;18.082;2022-09-13T15:23:18;6.72;;;1.90;;
17650;SDS011;26663;59.302;18.082;2022-09-13T15:26:27;1.83;;;1.73;;
17650;SDS011;26663;59.302;18.082;2022-09-13T15:29:32;1.77;;;1.77;;
17650;SDS011;26663;59.302;18.082;2022-09-13T15:32:40;2.47;;;1.65;;
17650;SDS011;26663;59.302;18.082;2022-09-13T15:35:47;1.52;;;1.50;;
17650;SDS011;26663;59.302;18.082;2022-09-13T15:39:01;2.70;;;2.10;;
17650;SDS011;26663;59.302;18.082;2022-09-13T15:42:20;2.03;;;1.88;;
17650;SDS011;26663;59.302;18.082;2022-09-13T15:45:25;2.47;;;2.30;;
17650;SDS011;26663;59.302;18.082;2022-09-13T15:48:31;1.80;;;1.70;;
17650;SDS011;26663;59.302;18.082;2022-09-13T15:51:39;2.65;;;1.70;;
17650;SDS011;26663;59.302;18.082;2022-09-13T15:54:48;2.05;;;1.95;;
17650;SDS011;26663;59.302;18.082;2022-09-13T15:57:54;1.73;;;1.45;;
17650;SDS011;26663;59.302;18.082;2022-09-13T16:00:59;1.88;;;1.77;;
17650;SDS011;26663;59.302;18.082;2022-09-13T16:04:06;1.70;;;1.60;;
17650;SDS011;26663;59.302;18.082;2022-09-13T16:07:11;1.40;;;1.40;;
17650;SDS011;26663;59.302;18.082;2022-09-13T16:10:19;1.45;;;1.40;;
17650;SDS011;26663;59.302;18.082;2022-09-13T16:13:25;1.88;;;1.67;;
17650;SDS011;26663;59.302;18.082;2022-09-13T16:16:31;2.17;;;1.90;;
17650;SDS011;26663;59.302;18.082;2022-09-13T16:19:42;3.70;;;1.92;;
17650;SDS011;26663;59.302;18.082;2022-09-13T16:22:47;2.00;;;1.90;;
17650;SDS011;26663;59.302;18.082;2022-09-13T16:25:54;2.28;;;2.00;;
17650;SDS011;26663;59.302;18.082;2022-09-13T16:29:01;1.80;;;1.80;;
17650;SDS011;26663;59.302;18.082;2022-09-13T16:32:09;1.85;;;1.73;;
17650;SDS011;26663;59.302;18.082;2022-09-13T16:35:15;3.53;;;2.00;;
17650;SDS011;26663;59.302;18.082;2022-09-13T16:38:20;2.75;;;2.25;;
17650;SDS011;26663;59.302;18.082;2022-09-13T16:41:27;1.60;;;1.60;;
17650;SDS011;26663;59.302;18.082;2022-09-13T16:44:33;4.28;;;1.90;;
17650;SDS011;26663;59.302;18.082;2022-09-13T16:47:38;1.52;;;1.52;;
17650;SDS011;26663;59.302;18.082;2022-09-13T16:50:44;3.97;;;2.10;;
17650;SDS011;26663;59.302;18.082;2022-09-13T16:53:50;2.58;;;2.38;;
17650;SDS011;26663;59.302;18.082;2022-09-13T16:56:58;3.55;;;2.33;;
17650;SDS011;26663;59.302;18.082;2022-09-13T17:00:03;2.40;;;2.20;;
17650;SDS011;26663;59.302;18.082;2022-09-13T17:03:13;3.40;;;2.47;;
17650;SDS011;26663;59.302;18.082;2022-09-13T17:06:19;2.33;;;2.17;;
17650;SDS011;26663;59.302;18.082;2022-09-13T17:09:26;2.38;;;2.20;;
17650;SDS011;26663;59.302;18.082;2022-09-13T17:12:33;2.75;;;2.28;;
17650;SDS011;26663;59.302;18.082;2022-09-13T17:15:39;2.30;;;2.20;;
17650;SDS011;26663;59.302;18.082;2022-09-13T17:18:44;2.38;;;2.00;;
17650;SDS011;26663;59.302;18.082;2022-09-13T17:21:50;2.00;;;1.90;;
17650;SDS011;26663;59.302;18.082;2022-09-13T17:24:59;2.63;;;2.00;;
17650;SDS011;26663;59.302;18.082;2022-09-13T17:28:06;1.95;;;1.85;;
17650;SDS011;26663;59.302;18.082;2022-09-13T17:31:11;2.42;;;2.22;;
17650;SDS011;26663;59.302;18.082;2022-09-13T17:34:17;3.60;;;2.53;;
17650;SDS011;26663;59.302;18.082;2022-09-13T17:37:22;2.17;;;2.13;;
17650;SDS011;26663;59.302;18.082;2022-09-13T17:40:28;2.63;;;2.33;;
17650;SDS011;26663;59.302;18.082;2022-09-13T17:43:35;2.30;;;2.20;;
17650;SDS011;26663;59.302;18.082;2022-09-13T17:46:41;2.22;;;2.13;;
17650;SDS011;26663;59.302;18.082;2022-09-13T17:49:46;2.40;;;2.20;;
17650;SDS011;26663;59.302;18.082;2022-09-13T17:52:52;4.53;;;2.15;;
17650;SDS011;26663;59.302;18.082;2022-09-13T17:55:57;4.43;;;2.00;;
17650;SDS011;26663;59.302;18.082;2022-09-13T17:59:04;2.30;;;1.80;;
17650;SDS011;26663;59.302;18.082;2022-09-13T18:02:12;3.25;;;1.65;;
17650;SDS011;26663;59.302;18.082;2022-09-13T18:05:17;2.92;;;1.77;;
17650;SDS011;26663;59.302;18.082;2022-09-13T18:08:23;1.70;;;1.60;;
17650;SDS011;26663;59.302;18.082;2022-09-13T18:11:28;2.28;;;2.08;;
17650;SDS011;26663;59.302;18.082;2022-09-13T18:14:35;3.28;;;1.90;;
17650;SDS011;26663;59.302;18.082;2022-09-13T18:17:40;3.15;;;1.70;;
17650;SDS011;26663;59.302;18.082;2022-09-13T18:20:45;2.08;;;1.88;;
17650;SDS011;26663;59.302;18.082;2022-09-13T18:23:51;1.70;;;1.70;;
17650;SDS011;26663;59.302;18.082;2022-09-13T18:27:00;2.38;;;2.00;;
17650;SDS011;26663;59.302;18.082;2022-09-13T18:30:07;2.13;;;1.90;;
17650;SDS011;26663;59.302;18.082;2022-09-13T18:33:15;2.60;;;2.20;;
17650;SDS011;26663;59.302;18.082;2022-09-13T18:36:23;3.78;;;1.92;;
17650;SDS011;26663;59.302;18.082;2022-09-13T18:39:28;1.95;;;1.88;;
17650;SDS011;26663;59.302;18.082;2022-09-13T18:42:34;2.20;;;2.10;;
17650;SDS011;26663;59.302;18.082;2022-09-13T18:45:44;5.25;;;2.28;;
17650;SDS011;26663;59.302;18.082;2022-09-13T18:48:58;4.07;;;2.33;;
17650;SDS011;26663;59.302;18.082;2022-09-13T18:52:05;1.77;;;1.77;;
17650;SDS011;26663;59.302;18.082;2022-09-13T18:55:10;2.03;;;2.00;;
17650;SDS011;26663;59.302;18.082;2022-09-13T18:58:15;2.20;;;2.10;;
17650;SDS011;26663;59.302;18.082;2022-09-13T19:01:23;3.15;;;2.13;;
17650;SDS011;26663;59.302;18.082;2022-09-13T19:04:30;7.47;;;2.55;;